Time;durP1;ratioP1;P1;durP2;ratioP2;P2;SDS_P1;SDS_P2;PMS_P1;PMS_P2;Temp;Humidity;BMP_temperature;BMP_pressure;BME280_temperature;BME280_humidity;BME280_pressure;Samples;Min_cycle;Max_cycle;Signal;HPM_P1;HPM_P2
2023/05/14 00:01:24;;;;;;;19.73;13.95;;;;;;;12.73;78.22;102068.13;6248037;22;20017;-84
2023/05/14 00:03:50;;;;;;;16.60;13.25;;;;;;;12.68;78.72;102072.06;6248020;22;20442;-84
2023/05/14 00:06:17;;;;;;;16.52;13.25;;;;;;;12.67;78.50;102070.56;6248075;22;20039;-84
2023/05/14 00:08:44;;;;;;;22.58;13.07;;;;;;;12.63;78.91;102061.88;6249988;22;20017;-85
2023/05/14 00:11:10;;;;;;;17.60;13.15;;;;;;;12.59;79.21;102059.28;6249310;22;20027;-84
2023/05/14 00:13:37;;;;;;;17.83;13.30;;;;;;;12.54;79.23;102057.13;6250177;22;20017;-85
2023/05/14 00:16:04;;;;;;;17.58;13.38;;;;;;;12.50;79.62;102053.78;6247911;22;20371;-85
2023/05/14 00:18:31;;;;;;;16.38;12.85;;;;;;;12.52;79.81;102048.03;6249400;22;20062;-84
2023/05/14 00:20:57;;;;;;;15.75;13.45;;;;;;;12.48;79.97;102050.78;6249553;22;20450;-84
2023/05/14 00:23:24;;;;;;;16.60;12.68;;;;;;;12.46;80.26;102045.13;6247576;22;20016;-84
2023/05/14 00:25:50;;;;;;;24.17;12.70;;;;;;;12.43;80.47;102045.97;6248413;22;20459;-84
2023/05/14 00:28:16;;;;;;;18.40;13.10;;;;;;;12.41;80.42;102045.63;6249180;22;20023;-84
2023/05/14 00:30:43;;;;;;;23.10;13.65;;;;;;;12.39;80.67;102044.56;6248166;22;20021;-84
2023/05/14 00:33:10;;;;;;;16.85;12.07;;;;;;;12.38;80.55;102037.72;6246933;22;20440;-84
2023/05/14 00:35:36;;;;;;;17.40;12.73;;;;;;;12.34;81.32;102041.25;6250115;22;20013;-84
2023/05/14 00:38:03;;;;;;;16.63;13.02;;;;;;;12.32;80.95;102040.16;6249588;22;20017;-84
2023/05/14 00:40:30;;;;;;;16.05;13.40;;;;;;;12.29;81.37;102036.41;6250295;22;20051;-84
2023/05/14 00:42:56;;;;;;;19.75;12.95;;;;;;;12.25;81.56;102035.75;6249592;22;20023;-85
2023/05/14 00:45:23;;;;;;;15.45;12.98;;;;;;;12.23;81.74;102027.41;6222575;22;20023;-84
2023/05/14 00:47:50;;;;;;;16.33;13.50;;;;;;;12.20;81.77;102028.22;6249210;22;20409;-84
2023/05/14 00:50:17;;;;;;;16.85;12.55;;;;;;;12.21;81.85;102023.66;6247371;22;20470;-84
2023/05/14 00:52:44;;;;;;;17.27;12.55;;;;;;;12.16;82.00;102021.47;6249975;22;20013;-84
2023/05/14 00:55:15;;;;;;;16.77;12.43;;;;;;;12.11;81.91;102019.31;6248899;22;20013;-84
2023/05/14 00:57:42;;;;;;;16.95;12.07;;;;;;;12.09;82.11;102019.72;6273740;22;20035;-84
2023/05/14 01:00:09;;;;;;;14.93;12.07;;;;;;;12.06;82.24;102009.13;6247114;22;20024;-84
2023/05/14 01:02:35;;;;;;;14.63;11.48;;;;;;;12.01;82.57;102008.47;6249228;22;20024;-84
2023/05/14 01:05:02;;;;;;;16.08;11.88;;;;;;;12.01;82.47;102008.47;6249593;22;20040;-84
2023/05/14 01:07:44;;;;;;;19.83;12.25;;;;;;;11.97;82.38;102013.16;6273628;22;20083;-84
2023/05/14 01:10:18;;;;;;;;;;;;;;;11.93;81.77;102017.09;6250286;22;20039;-84
2023/05/14 01:13:11;;;;;;;13.45;11.77;;;;;;;11.91;82.48;102014.09;6251380;22;19920;-84
2023/05/14 01:15:40;;;;;;;16.83;12.82;;;;;;;11.87;82.81;102008.81;6249171;22;20017;-84
2023/05/14 01:18:12;;;;;;;15.23;12.05;;;;;;;11.84;83.34;102011.56;6272813;22;20526;-84
2023/05/14 01:20:39;;;;;;;13.40;11.55;;;;;;;11.79;83.35;102012.06;6249708;22;20071;-83
2023/05/14 01:23:06;;;;;;;18.35;12.25;;;;;;;11.78;83.61;102005.25;6247356;22;20027;-84
2023/05/14 01:25:34;;;;;;;16.60;12.48;;;;;;;11.76;83.68;102010.22;6249940;22;20473;-84
2023/05/14 01:28:22;;;;;;;17.13;11.98;;;;;;;11.74;83.61;102012.53;6249196;22;20052;-83
2023/05/14 01:30:52;;;;;;;19.73;12.65;;;;;;;11.70;83.69;102007.28;6249150;22;20023;-83
2023/05/14 01:33:21;;;;;;;13.93;12.05;;;;;;;11.66;84.47;102006.63;6248801;22;20012;-83
2023/05/14 01:35:48;;;;;;;16.27;12.45;;;;;;;11.64;84.71;102016.94;6248928;22;20419;-83
2023/05/14 01:38:17;;;;;;;16.90;12.27;;;;;;;11.61;84.57;102015.09;6248891;22;20018;-83
2023/05/14 01:40:45;;;;;;;15.68;11.93;;;;;;;11.59;84.66;102012.13;6249716;22;20021;-83
2023/05/14 01:43:13;;;;;;;16.75;11.98;;;;;;;11.56;84.59;102008.38;6246865;22;20021;-83
2023/05/14 01:45:41;;;;;;;17.98;12.32;;;;;;;11.54;85.04;102010.69;6247047;22;20044;-84
2023/05/14 01:48:08;;;;;;;16.95;12.75;;;;;;;11.52;85.45;102004.28;6247025;22;20021;-84
2023/05/14 01:50:34;;;;;;;22.63;12.73;;;;;;;11.48;85.32;101999.03;6249417;22;20024;-83
2023/05/14 01:53:01;;;;;;;20.30;12.55;;;;;;;11.48;85.28;102000.94;6247135;22;20020;-83
2023/05/14 01:55:28;;;;;;;22.27;12.63;;;;;;;11.46;85.12;101996.03;6248513;22;20023;-85
2023/05/14 01:57:55;;;;;;;19.42;12.23;;;;;;;11.44;85.49;102002.94;6249582;22;20016;-84
2023/05/14 02:00:23;;;;;;;20.65;12.98;;;;;;;11.40;85.96;102000.34;6221579;22;20025;-84
2023/05/14 02:02:50;;;;;;;15.52;12.15;;;;;;;11.39;85.77;101995.41;6249313;22;20451;-84
2023/05/14 02:05:17;;;;;;;19.05;13.32;;;;;;;11.35;86.19;101990.16;6248574;22;20071;-84
2023/05/14 02:07:44;;;;;;;15.65;11.80;;;;;;;11.33;86.22;101987.16;6247034;22;20031;-84
2023/05/14 02:10:10;;;;;;;18.88;12.57;;;;;;;11.31;86.03;101973.50;6246953;22;20072;-84
2023/05/14 02:12:37;;;;;;;16.75;12.45;;;;;;;11.29;86.20;101975.81;6249121;22;20454;-84
2023/05/14 02:15:04;;;;;;;19.45;12.43;;;;;;;11.25;86.23;101972.47;6248152;22;20384;-84
2023/05/14 02:17:31;;;;;;;17.52;12.45;;;;;;;11.23;86.56;101972.88;6222051;22;20082;-84
2023/05/14 02:19:57;;;;;;;21.25;12.65;;;;;;;11.23;86.63;101977.47;6247148;22;20025;-84
2023/05/14 02:22:24;;;;;;;20.15;13.25;;;;;;;11.20;86.61;101973.72;6222130;22;20497;-84
2023/05/14 02:24:51;;;;;;;18.33;12.57;;;;;;;11.18;86.98;101984.06;6222250;22;20021;-84
2023/05/14 02:27:17;;;;;;;15.65;12.15;;;;;;;11.15;86.96;101986.81;6246427;22;20028;-84
2023/05/14 02:29:44;;;;;;;14.10;12.05;;;;;;;11.14;86.95;101974.66;6246941;22;20105;-84
2023/05/14 02:32:10;;;;;;;18.10;13.23;;;;;;;11.11;87.63;101976.22;6246729;22;20465;-84
2023/05/14 02:34:38;;;;;;;15.23;11.93;;;;;;;11.11;87.11;101978.13;6247136;22;20063;-84
2023/05/14 02:37:04;;;;;;;23.33;13.20;;;;;;;11.08;87.27;101973.63;6246545;22;20019;-84
2023/05/14 02:39:31;;;;;;;21.92;12.93;;;;;;;11.06;87.51;101968.69;6247492;22;20075;-84
2023/05/14 02:41:57;;;;;;;16.25;11.90;;;;;;;11.05;87.83;101963.78;6221029;22;20021;-84
2023/05/14 02:44:24;;;;;;;16.42;11.68;;;;;;;11.03;87.88;101967.63;6221566;22;20013;-84
2023/05/14 02:46:50;;;;;;;16.10;12.70;;;;;;;11.01;87.80;101967.28;6248071;22;20408;-83
2023/05/14 02:49:17;;;;;;;20.38;12.07;;;;;;;10.99;87.77;101968.84;6247645;22;20032;-83
2023/05/14 02:51:43;;;;;;;18.08;12.30;;;;;;;10.97;88.12;101963.94;6250386;22;20012;-84
2023/05/14 02:54:15;;;;;;;19.15;12.23;;;;;;;10.95;88.46;101963.59;6223313;22;20021;-84
2023/05/14 02:56:42;;;;;;;15.38;12.40;;;;;;;10.92;88.66;101967.06;6247950;22;20079;-84
2023/05/14 02:59:08;;;;;;;14.70;11.65;;;;;;;10.92;88.50;101966.31;6248009;22;20025;-84
2023/05/14 03:01:35;;;;;;;17.10;12.45;;;;;;;10.90;88.51;101963.31;6248529;22;20024;-84
2023/05/14 03:04:02;;;;;;;18.33;11.82;;;;;;;10.87;88.95;101962.22;6248066;22;20024;-83
2023/05/14 03:06:30;;;;;;;20.30;12.60;;;;;;;10.86;88.89;101962.63;6249877;22;20020;-84
2023/05/14 03:08:56;;;;;;;15.27;12.45;;;;;;;10.84;89.17;101965.72;6249914;22;20470;-83
2023/05/14 03:11:23;;;;;;;13.43;11.32;;;;;;;10.83;89.41;101963.47;6247885;22;20016;-84
2023/05/14 03:13:49;;;;;;;21.20;12.25;;;;;;;10.81;89.32;101950.53;6250482;22;20024;-83
2023/05/14 03:16:15;;;;;;;23.17;12.82;;;;;;;10.80;89.34;101962.38;6247941;22;20016;-83
2023/05/14 03:18:42;;;;;;;16.38;12.35;;;;;;;10.77;89.75;101949.91;6248606;22;20055;-84
2023/05/14 03:21:09;;;;;;;17.63;12.68;;;;;;;10.76;90.18;101955.63;6222568;22;20023;-84
2023/05/14 03:23:35;;;;;;;16.23;12.20;;;;;;;10.73;90.41;101964.44;6248505;22;20021;-84
2023/05/14 03:26:03;;;;;;;16.58;12.27;;;;;;;10.71;90.09;101959.53;6222425;22;20095;-83
2023/05/14 03:28:30;;;;;;;17.80;12.40;;;;;;;10.70;90.31;101958.00;6250616;22;20051;-84
2023/05/14 03:30:58;;;;;;;17.40;12.25;;;;;;;10.69;90.58;101959.94;6248166;22;20087;-84
2023/05/14 03:33:25;;;;;;;18.05;11.98;;;;;;;10.67;90.80;101958.84;6248229;22;20052;-84
2023/05/14 03:35:51;;;;;;;19.35;12.32;;;;;;;10.67;90.77;101958.84;6250321;22;20047;-84
2023/05/14 03:38:19;;;;;;;17.67;12.85;;;;;;;10.65;91.46;101959.25;6247618;22;20027;-83
2023/05/14 03:40:46;;;;;;;18.48;12.75;;;;;;;10.63;90.87;101960.81;6249622;22;20012;-83
2023/05/14 03:43:13;;;;;;;17.65;12.00;;;;;;;10.62;91.29;101957.41;6249699;22;20443;-84
2023/05/14 03:45:40;;;;;;;17.65;11.88;;;;;;;10.63;91.22;101958.16;6248654;22;20486;-83
2023/05/14 03:48:06;;;;;;;19.52;12.30;;;;;;;10.63;91.79;101963.47;6247655;22;20024;-84
2023/05/14 03:50:34;;;;;;;16.73;12.43;;;;;;;10.63;91.49;101955.50;6248099;22;20017;-84
2023/05/14 03:53:00;;;;;;;17.35;13.13;;;;;;;10.62;92.15;101956.66;6248091;22;20012;-83
2023/05/14 03:55:28;;;;;;;15.07;12.40;;;;;;;10.61;92.19;101955.16;6246750;22;20370;-84
2023/05/14 03:57:55;;;;;;;20.50;12.07;;;;;;;10.61;91.80;101947.16;6247212;22;20028;-84
2023/05/14 04:00:22;;;;;;;16.10;11.70;;;;;;;10.62;92.01;101946.75;6223717;22;20023;-85
2023/05/14 04:02:50;;;;;;;17.27;11.93;;;;;;;10.63;92.09;101947.50;6248287;22;20481;-84
2023/05/14 04:05:17;;;;;;;19.77;11.70;;;;;;;10.64;91.72;101946.34;6249362;22;20541;-84
2023/05/14 04:07:45;;;;;;;13.38;11.88;;;;;;;10.64;92.13;101930.34;6223041;22;20020;-84
2023/05/14 04:10:12;;;;;;;17.95;12.50;;;;;;;10.65;92.12;101950.50;6247041;22;20454;-85
2023/05/14 04:12:38;;;;;;;14.23;12.00;;;;;;;10.64;92.25;101941.75;6222831;22;20040;-85
2023/05/14 04:15:06;;;;;;;20.52;12.10;;;;;;;10.65;92.27;101937.94;6222300;22;20079;-85
2023/05/14 04:17:32;;;;;;;16.95;12.32;;;;;;;10.67;92.10;101940.19;6274260;22;20020;-84
2023/05/14 04:20:00;;;;;;;17.27;11.48;;;;;;;10.69;92.01;101945.88;6247916;22;20065;-84
2023/05/14 04:22:27;;;;;;;18.38;11.27;;;;;;;10.70;92.11;101947.38;6248121;22;20017;-84
2023/05/14 04:24:53;;;;;;;14.27;11.40;;;;;;;10.71;92.24;101932.13;6247729;22;20040;-85
2023/05/14 04:27:20;;;;;;;19.02;11.27;;;;;;;10.73;92.13;101935.88;6247466;22;20369;-85
2023/05/14 04:29:48;;;;;;;15.90;10.85;;;;;;;10.74;91.76;101944.63;6248430;22;20128;-85
2023/05/14 04:32:14;;;;;;;13.68;10.45;;;;;;;10.75;92.15;101933.56;6249166;22;20032;-85
2023/05/14 04:34:41;;;;;;;17.10;11.10;;;;;;;10.78;92.04;101940.75;6250614;22;20016;-85
2023/05/14 04:37:08;;;;;;;16.33;11.43;;;;;;;10.80;92.11;101935.72;6222351;22;20699;-85
2023/05/14 04:39:34;;;;;;;18.27;10.85;;;;;;;10.84;91.78;101940.97;6248002;22;20100;-85
2023/05/14 04:42:01;;;;;;;13.90;11.07;;;;;;;10.90;91.62;101939.34;6249563;22;20437;-84
2023/05/14 04:44:27;;;;;;;12.80;10.95;;;;;;;10.96;91.68;101943.78;6248142;22;20012;-85
2023/05/14 04:46:54;;;;;;;13.27;10.60;;;;;;;11.07;91.59;101938.22;6248225;22;20473;-85
2023/05/14 04:49:21;;;;;;;16.08;10.48;;;;;;;11.54;90.37;101938.69;6247799;22;20024;-83
2023/05/14 04:51:48;;;;;;;14.48;10.75;;;;;;;11.82;88.50;101944.53;6248228;22;20021;-83
2023/05/14 04:54:14;;;;;;;16.90;10.60;;;;;;;12.12;87.68;101938.81;6247134;22;20506;-83
2023/05/14 04:56:41;;;;;;;13.90;10.80;;;;;;;13.25;83.93;101940.25;6249764;22;20021;-83
2023/05/14 04:59:07;;;;;;;16.00;10.02;;;;;;;14.44;78.30;101959.31;6249011;22;20013;-83
2023/05/14 05:01:34;;;;;;;12.13;10.05;;;;;;;15.43;73.33;101947.59;6248010;22;20017;-83
2023/05/14 05:04:01;;;;;;;11.63;9.65;;;;;;;16.13;69.54;101947.81;6249182;22;20036;-84
2023/05/14 05:06:27;;;;;;;14.75;10.25;;;;;;;16.46;67.32;101948.66;6248484;22;20096;-83
2023/05/14 05:08:54;;;;;;;13.18;9.88;;;;;;;16.50;66.60;101956.59;6249389;22;20071;-84
2023/05/14 05:11:21;;;;;;;12.88;9.88;;;;;;;16.57;66.14;101954.34;6249408;22;20443;-83
2023/05/14 05:13:47;;;;;;;12.65;9.50;;;;;;;16.56;65.25;101950.16;6249674;22;20152;-84
2023/05/14 05:16:14;;;;;;;11.95;9.43;;;;;;;16.69;65.52;101955.38;6249183;22;20422;-84
2023/05/14 05:18:41;;;;;;;12.82;9.43;;;;;;;16.92;64.92;101949.31;6249913;22;20084;-84
2023/05/14 05:21:07;;;;;;;11.18;10.00;;;;;;;17.34;63.99;101946.59;6247266;22;20469;-84
2023/05/14 05:23:34;;;;;;;12.05;9.25;;;;;;;17.70;62.18;101960.31;6249482;22;20012;-84
2023/05/14 05:26:00;;;;;;;13.15;9.35;;;;;;;17.68;61.27;101955.38;6248027;22;20083;-84
2023/05/14 05:28:27;;;;;;;11.98;9.57;;;;;;;17.72;61.62;101955.94;6249356;22;20513;-84
2023/05/14 05:30:53;;;;;;;10.30;9.27;;;;;;;17.97;60.93;101963.56;6248354;22;20017;-84
2023/05/14 05:33:20;;;;;;;10.05;8.30;;;;;;;18.14;60.40;101963.84;6247450;22;20016;-84
2023/05/14 05:35:48;;;;;;;13.13;9.82;;;;;;;18.21;59.28;101968.88;6248216;22;20027;-83
2023/05/14 05:38:17;;;;;;;12.45;9.50;;;;;;;18.56;58.89;101971.69;6247853;22;20013;-84
2023/05/14 05:40:43;;;;;;;12.70;9.18;;;;;;;18.43;58.60;101967.78;6250877;22;20076;-84
2023/05/14 05:43:10;;;;;;;10.73;8.73;;;;;;;18.44;59.52;101959.22;6246867;22;20021;-84
2023/05/14 05:45:36;;;;;;;12.10;9.60;;;;;;;18.11;59.47;101958.63;6247868;22;20025;-84
2023/05/14 05:48:03;;;;;;;13.75;8.93;;;;;;;17.25;62.00;101960.09;6249105;22;20016;-84
2023/05/14 05:50:31;;;;;;;9.85;8.88;;;;;;;16.44;64.15;101966.44;6249188;22;20414;-84
2023/05/14 05:52:58;;;;;;;10.70;8.60;;;;;;;15.86;66.28;101968.13;6248865;22;20017;-84
2023/05/14 05:55:24;;;;;;;9.38;8.45;;;;;;;15.46;67.79;101970.09;6249101;22;20422;-84
2023/05/14 05:57:51;;;;;;;14.82;9.20;;;;;;;15.08;69.74;101973.84;6249702;22;20013;-84
2023/05/14 06:00:18;;;;;;;10.35;8.73;;;;;;;14.90;70.85;101965.69;6248850;22;20019;-83
2023/05/14 06:02:45;;;;;;;11.65;9.00;;;;;;;14.75;71.61;101964.75;6249529;22;20020;-85
2023/05/14 06:05:12;;;;;;;13.18;9.13;;;;;;;14.65;72.24;101970.06;6249278;22;20040;-85
2023/05/14 06:07:38;;;;;;;9.30;8.32;;;;;;;14.60;72.82;101969.88;6250308;22;20013;-84
2023/05/14 06:10:05;;;;;;;9.82;8.80;;;;;;;14.53;73.44;101972.78;6247242;22;20500;-82
2023/05/14 06:12:32;;;;;;;14.60;9.77;;;;;;;14.61;73.80;101969.44;6249602;22;20017;-83
2023/05/14 06:14:58;;;;;;;11.52;9.00;;;;;;;14.85;73.80;101967.03;6226231;22;20008;-84
2023/05/14 06:17:25;;;;;;;9.88;8.93;;;;;;;14.85;73.88;101974.31;6247554;22;20504;-81
2023/05/14 06:19:52;;;;;;;10.90;9.05;;;;;;;14.82;73.53;101975.19;6247844;22;20020;-84
2023/05/14 06:22:18;;;;;;;11.48;9.45;;;;;;;14.71;73.49;101972.91;6250860;22;20294;-85
2023/05/14 06:24:45;;;;;;;16.20;9.23;;;;;;;14.74;74.37;101977.41;6224533;22;20375;-84
2023/05/14 06:27:11;;;;;;;13.10;9.13;;;;;;;14.86;74.45;101981.91;6250896;22;20045;-84
2023/05/14 06:29:38;;;;;;;13.80;8.98;;;;;;;14.95;73.28;101984.66;6251149;22;20017;-82
2023/05/14 06:32:05;;;;;;;11.75;9.07;;;;;;;14.93;73.88;101989.72;6250753;22;20012;-83
2023/05/14 06:34:32;;;;;;;11.00;8.43;;;;;;;14.98;74.04;101983.03;6250702;22;20075;-84
2023/05/14 06:36:59;;;;;;;10.52;8.65;;;;;;;15.23;73.16;101985.50;6248996;22;20013;-88
2023/05/14 06:39:25;;;;;;;11.73;9.02;;;;;;;15.53;72.64;101975.94;6251304;22;20013;-83
2023/05/14 06:41:52;;;;;;;9.68;8.77;;;;;;;15.62;71.96;101989.38;6251366;22;20023;-85
2023/05/14 06:44:20;;;;;;;9.27;7.97;;;;;;;15.90;71.66;101965.28;6249195;22;20052;-82
2023/05/14 06:46:47;;;;;;;10.10;8.68;;;;;;;16.11;70.58;101975.13;6254157;22;20016;-80
2023/05/14 06:49:13;;;;;;;8.60;7.72;;;;;;;16.24;70.09;101983.78;6250537;22;20024;-81
2023/05/14 06:51:40;;;;;;;9.65;8.48;;;;;;;16.41;68.87;101972.72;6251139;22;20016;-84
2023/05/14 06:54:07;;;;;;;9.30;8.07;;;;;;;16.63;68.64;101981.34;6249013;22;20075;-83
2023/05/14 06:56:34;;;;;;;10.55;8.38;;;;;;;16.75;67.34;101968.97;6249324;22;20048;-83
2023/05/14 06:59:00;;;;;;;10.65;7.55;;;;;;;16.85;67.47;101971.16;6223742;22;20021;-81
2023/05/14 07:01:27;;;;;;;12.63;8.43;;;;;;;16.98;66.78;101966.34;6249469;22;20438;-80
2023/05/14 07:03:53;;;;;;;14.27;7.72;;;;;;;17.08;66.54;101961.66;6248913;22;20083;-77
2023/05/14 07:06:20;;;;;;;13.73;7.60;;;;;;;17.02;66.00;101960.06;6250694;22;20024;-76
2023/05/14 07:08:46;;;;;;;11.23;7.95;;;;;;;16.80;66.44;101968.34;6249252;22;20048;-79
2023/05/14 07:11:13;;;;;;;12.80;8.05;;;;;;;16.89;66.81;101963.69;6248719;22;20023;-77
2023/05/14 07:13:40;;;;;;;11.25;7.20;;;;;;;17.01;66.29;101964.69;6251061;22;20051;-78
2023/05/14 07:16:10;;;;;;;9.88;7.45;;;;;;;17.20;65.06;101970.72;6250749;22;20088;-78
2023/05/14 07:18:37;;;;;;;10.70;7.25;;;;;;;17.34;65.41;101978.88;6250175;22;20545;-78
2023/05/14 07:21:05;;;;;;;8.68;7.57;;;;;;;17.32;65.10;101975.16;6250386;22;20085;-78
2023/05/14 07:23:37;;;;;;;9.73;7.65;;;;;;;17.36;65.47;101969.59;6249039;22;20021;-78
2023/05/14 07:26:04;;;;;;;9.18;7.45;;;;;;;17.49;65.46;101970.88;6249184;22;20021;-78
2023/05/14 07:28:31;;;;;;;10.98;7.85;;;;;;;17.42;65.17;101973.91;6248526;22;20434;-78
2023/05/14 07:30:58;;;;;;;8.45;6.53;;;;;;;17.55;65.18;101969.06;6248764;22;20459;-78
2023/05/14 07:33:25;;;;;;;8.65;6.75;;;;;;;17.75;65.50;101965.06;6248898;22;20028;-78
2023/05/14 07:35:52;;;;;;;14.10;7.25;;;;;;;17.99;64.62;101965.78;6250938;22;20020;-78
2023/05/14 07:38:19;;;;;;;8.13;7.03;;;;;;;18.15;64.34;101970.72;6250581;22;20075;-79
2023/05/14 07:40:46;;;;;;;8.43;7.40;;;;;;;18.27;64.49;101967.03;6251051;22;20013;-79
2023/05/14 07:43:12;;;;;;;12.68;7.63;;;;;;;18.30;64.63;101968.06;6250287;22;20024;-78
2023/05/14 07:45:39;;;;;;;10.95;8.00;;;;;;;18.35;65.41;101958.59;6249035;22;20016;-78
2023/05/14 07:48:06;;;;;;;12.88;8.63;;;;;;;18.52;64.36;101960.34;6249969;22;20487;-78
2023/05/14 07:50:32;;;;;;;9.98;8.45;;;;;;;18.68;64.18;101955.72;6250887;22;20028;-78
2023/05/14 07:52:59;;;;;;;10.63;8.60;;;;;;;18.83;63.82;101962.56;6248583;22;20028;-79
2023/05/14 07:55:25;;;;;;;11.30;8.70;;;;;;;18.98;64.04;101954.47;6250625;22;20012;-78
2023/05/14 07:57:52;;;;;;;11.90;8.70;;;;;;;19.11;63.53;101952.22;6250759;22;20013;-79
2023/05/14 08:00:18;;;;;;;15.00;8.23;;;;;;;19.24;63.07;101959.97;6250504;22;20023;-78
2023/05/14 08:02:45;;;;;;;12.45;8.52;;;;;;;19.26;62.62;101952.91;6250282;22;20092;-79
2023/05/14 08:05:12;;;;;;;11.48;7.82;;;;;;;19.38;62.08;101961.88;6248905;22;20088;-79
2023/05/14 08:07:39;;;;;;;9.25;8.07;;;;;;;19.37;61.42;101963.09;6249028;22;20017;-79
2023/05/14 08:10:06;;;;;;;14.63;8.43;;;;;;;19.34;61.95;101966.75;6250312;22;20051;-79
2023/05/14 08:12:33;;;;;;;10.38;9.00;;;;;;;19.20;61.48;101960.16;6250759;22;20094;-78
2023/05/14 08:14:59;;;;;;;8.90;7.90;;;;;;;19.10;62.47;101952.69;6250411;22;20052;-79
2023/05/14 08:17:26;;;;;;;11.50;8.48;;;;;;;19.05;62.00;101953.34;6250282;22;20028;-78
2023/05/14 08:19:53;;;;;;;14.80;8.85;;;;;;;19.07;62.46;101953.63;6250648;22;20039;-78
2023/05/14 08:22:19;;;;;;;11.20;7.90;;;;;;;19.21;62.07;101958.22;6250452;22;20087;-78
2023/05/14 08:24:46;;;;;;;9.80;8.88;;;;;;;19.43;62.37;101955.06;6250571;22;20044;-79
2023/05/14 08:27:12;;;;;;;10.43;7.78;;;;;;;19.59;60.98;101962.69;6250403;22;20012;-80
2023/05/14 08:29:39;;;;;;;16.27;8.38;;;;;;;19.66;61.44;101964.97;6250206;22;20450;-79
2023/05/14 08:32:05;;;;;;;11.07;7.72;;;;;;;19.84;61.02;101962.00;6249605;22;20095;-78
2023/05/14 08:34:48;;;;;;;10.07;7.38;;;;;;;20.11;60.97;101960.78;6250650;22;20023;-81
2023/05/14 08:37:15;;;;;;;13.20;8.35;;;;;;;20.20;59.18;101957.94;6248756;22;20674;-79
2023/05/14 08:39:41;;;;;;;11.13;7.25;;;;;;;20.26;59.25;101958.00;6250590;22;20036;-82
2023/05/14 08:42:11;;;;;;;10.43;7.47;;;;;;;20.29;59.13;101946.22;6248619;22;20024;-81
2023/05/14 08:44:46;;;;;;;11.50;7.43;;;;;;;20.49;58.75;101958.94;6249369;22;20023;-83
2023/05/14 08:47:15;;;;;;;9.45;7.63;;;;;;;20.52;57.67;101949.88;6249006;22;20055;-81
2023/05/14 08:49:43;;;;;;;12.05;6.68;;;;;;;20.51;57.74;101942.97;6248947;22;20050;-83
2023/05/14 08:52:10;;;;;;;8.52;7.22;;;;;;;20.43;58.21;101928.41;6250505;22;20023;-81
2023/05/14 08:54:38;;;;;;;9.32;7.05;;;;;;;20.57;57.00;101932.94;6248732;22;20478;-81
2023/05/14 08:57:08;;;;;;;15.50;7.35;;;;;;;20.59;57.31;101939.38;6250232;22;20098;-79
2023/05/14 08:59:35;;;;;;;7.25;6.55;;;;;;;20.76;56.78;101936.78;6250271;22;20461;-79
2023/05/14 09:02:03;;;;;;;12.43;7.35;;;;;;;20.61;56.44;101944.28;6250192;22;20017;-78
2023/05/14 09:04:31;;;;;;;10.70;7.25;;;;;;;20.56;57.22;101936.88;6250346;22;20013;-78
2023/05/14 09:07:00;;;;;;;10.45;7.05;;;;;;;20.58;56.56;101931.72;6250330;22;20382;-78
2023/05/14 09:09:27;;;;;;;7.75;7.00;;;;;;;20.48;57.17;101933.84;6250312;22;20458;-79
2023/05/14 09:11:53;;;;;;;9.00;6.25;;;;;;;20.67;57.12;101926.16;6250004;22;20021;-79
2023/05/14 09:14:21;;;;;;;10.40;6.50;;;;;;;20.97;55.52;101926.56;6250767;22;20088;-79
2023/05/14 09:16:50;;;;;;;7.18;6.40;;;;;;;21.00;55.45;101931.03;6249564;22;20021;-78
2023/05/14 09:19:17;;;;;;;13.07;6.85;;;;;;;21.16;54.68;101921.53;6249326;22;20013;-80
2023/05/14 09:21:46;;;;;;;10.95;6.55;;;;;;;21.24;54.47;101919.84;6251176;22;20421;-80
2023/05/14 09:24:23;;;;;;;10.27;6.45;;;;;;;21.48;55.71;101919.47;6251658;22;20016;-80
2023/05/14 09:26:52;;;;;;;8.15;6.20;;;;;;;21.58;54.41;101915.31;6250154;22;20063;-81
2023/05/14 09:29:19;;;;;;;11.48;6.82;;;;;;;21.62;53.71;101919.25;6250600;22;20461;-82
2023/05/14 09:31:49;;;;;;;9.05;6.05;;;;;;;21.62;54.86;101913.81;6251239;22;20013;-81
2023/05/14 09:34:27;;;;;;;8.80;6.43;;;;;;;21.58;54.01;101915.31;6251379;22;20036;-81
2023/05/14 09:37:01;;;;;;;7.88;5.85;;;;;;;21.73;54.75;101906.97;6251583;22;20016;-81
2023/05/14 09:39:28;;;;;;;15.38;6.97;;;;;;;21.98;53.42;101908.75;6250220;22;20044;-81
2023/05/14 09:41:55;;;;;;;7.63;6.38;;;;;;;21.90;53.02;101907.75;6249431;22;20372;-82
2023/05/14 09:44:22;;;;;;;7.82;6.10;;;;;;;21.83;53.63;101905.50;6250553;22;20009;-81
2023/05/14 09:46:50;;;;;;;13.02;6.15;;;;;;;22.05;54.25;101904.81;6251487;22;20037;-84
2023/05/14 09:49:16;;;;;;;10.45;6.60;;;;;;;22.21;52.40;101901.38;6251183;22;20095;-77
2023/05/14 09:51:43;;;;;;;10.82;5.60;;;;;;;22.22;52.76;101903.63;6249731;22;20016;-78
2023/05/14 09:54:10;;;;;;;9.70;5.82;;;;;;;22.27;52.09;101905.59;6251241;22;20024;-77
2023/05/14 09:56:38;;;;;;;10.60;6.30;;;;;;;22.30;51.96;101903.88;6251946;22;20048;-77
2023/05/14 09:59:05;;;;;;;7.82;5.60;;;;;;;22.49;51.70;101907.53;6251700;22;20056;-77
2023/05/14 10:01:32;;;;;;;9.57;6.28;;;;;;;22.54;51.93;101901.38;6252483;22;20051;-83
2023/05/14 10:03:59;;;;;;;8.25;5.82;;;;;;;22.59;51.51;101897.91;6252399;22;20733;-80
2023/05/14 10:06:29;;;;;;;9.45;6.35;;;;;;;22.58;50.80;101898.41;6252603;22;20016;-82
2023/05/14 10:09:03;;;;;;;9.02;5.40;;;;;;;22.70;52.02;101896.41;6252583;22;20132;-80
2023/05/14 10:11:32;;;;;;;12.27;6.30;;;;;;;22.84;51.04;101895.41;6253898;22;20537;-85
2023/05/14 10:14:06;;;;;;;12.93;5.78;;;;;;;22.90;51.12;101893.44;6250453;22;20020;-78
2023/05/14 10:16:36;;;;;;;6.68;5.78;;;;;;;22.82;51.31;101895.16;6252546;22;20071;-78
2023/05/14 10:19:09;;;;;;;8.13;6.05;;;;;;;23.00;50.92;101896.63;6252374;22;20013;-77
2023/05/14 10:21:37;;;;;;;8.45;5.97;;;;;;;23.21;50.61;101892.31;6252360;22;20091;-80
2023/05/14 10:24:05;;;;;;;8.10;6.13;;;;;;;23.15;49.58;101891.63;6252231;22;20013;-79
2023/05/14 10:26:37;;;;;;;8.82;5.85;;;;;;;23.27;50.06;101884.91;6252020;22;20016;-79
2023/05/14 10:29:05;;;;;;;10.88;6.30;;;;;;;23.25;50.22;101884.66;6252279;22;20048;-80
2023/05/14 10:31:54;;;;;;;9.48;5.95;;;;;;;23.17;49.83;101872.84;6252218;22;20028;-80
2023/05/14 10:34:30;;;;;;;6.68;5.47;;;;;;;23.37;49.73;101875.22;6252271;22;20016;-79
2023/05/14 10:37:01;;;;;;;6.22;5.53;;;;;;;23.61;49.89;101875.34;6252367;22;20013;-80
2023/05/14 10:39:44;;;;;;;9.52;6.07;;;;;;;23.61;47.85;101882.75;6252317;22;20012;-86
2023/05/14 10:42:23;;;;;;;10.38;5.88;;;;;;;23.48;48.05;101885.31;6250476;22;20017;-79
2023/05/14 10:44:54;;;;;;;7.53;6.05;;;;;;;23.32;47.79;101875.97;6255325;22;20017;-80
2023/05/14 10:47:21;;;;;;;8.73;5.85;;;;;;;23.31;48.94;101871.78;6251710;22;20195;-80
2023/05/14 10:49:48;;;;;;;12.38;6.43;;;;;;;23.52;47.54;101864.03;6251466;22;20048;-80
2023/05/14 10:52:18;;;;;;;8.45;6.25;;;;;;;23.64;47.09;101862.72;6251802;22;20020;-79
2023/05/14 10:54:49;;;;;;;7.82;5.78;;;;;;;23.80;47.80;101858.44;6251705;22;20474;-80
2023/05/14 10:57:18;;;;;;;7.30;5.55;;;;;;;23.78;47.44;101856.22;6252281;22;20023;-79
2023/05/14 10:59:47;;;;;;;10.50;6.07;;;;;;;23.83;47.58;101857.44;6252012;22;20427;-79
2023/05/14 11:02:27;;;;;;;6.18;5.57;;;;;;;23.96;47.54;101856.84;6250008;22;20028;-79
2023/05/14 11:05:05;;;;;;;14.30;5.20;;;;;;;24.03;47.37;101862.44;6252232;22;20013;-79
2023/05/14 11:07:34;;;;;;;7.97;5.53;;;;;;;24.16;47.07;101853.69;6250368;22;20363;-79
2023/05/14 11:10:13;;;;;;;8.35;5.15;;;;;;;24.16;46.18;101851.72;6249438;22;20020;-79
2023/05/14 11:12:42;;;;;;;5.85;4.97;;;;;;;24.30;46.08;101854.59;6252205;22;20451;-79
2023/05/14 11:15:10;;;;;;;9.95;5.10;;;;;;;24.59;45.66;101845.63;6252145;22;20469;-79
2023/05/14 11:17:39;;;;;;;6.93;4.68;;;;;;;24.70;44.63;101847.50;6252185;22;20017;-79
2023/05/14 11:20:06;;;;;;;8.93;5.32;;;;;;;24.58;44.32;101841.44;6251994;22;20450;-79